My Meet Scores
Isabella Lele, Gymnastics and Cheerleading Academy CT - MyMeetScores.com
Top100 | Top Teams | Upcoming Meets | Completed Meets | Latest | Add Scores | Help| Support | Bookmark and Share

Isabella Lele, Gymnastics and Cheerleading Academy CT
Personal Bests
LevelVault BarsBeamFloorAA
39.0009.650 9.4509.20036.400
49.0009.600 9.3009.30036.850
58.6508.750 9.3508.72534.775
Meet Scores
Date Meet Team Session Level Division Vault Bars Beam Floor AA
2019-02-01 State Level 4&5 Gymnastics and Cheerleading Academy CT 6 5 12 Yrs 8.500 38 8.450 24 8.550 20 8.350 33T 33.850 31
2019-01-25 Kinetic Kids Invitational 2019 Gymnastics and Cheerleading Academy CT 2 5 Older 8.650 6 8.300 1 9.350 1 8.475 5T 34.775 2
2019-01-18 DGS Northeast Invite Gymnastics and Cheerleading Academy CT 5A 5 Jr A 8.400 12 7.800 9 8.700 9 8.500 9T 33.400 9
2019-01-11 2019 New Years Blast Gymnastics and Cheerleading Academy CT 3 5 Senior 8.050 12 8.750 4 9.250 2 8.650 5 34.700 4
2018-11-30 Rhode Island Invitational Gymnastics and Cheerleading Academy CT SU3 5 Junior 8.150 7 8.200 5 8.925 3 8.725 3 34.000 4T
2018-11-17 2018 Connecticut Judge's Cup Gymnastics and Cheerleading Academy CT 5 5 11 yrs. 8.050 51T 7.300 39T 8.200 40T 8.500 40 32.050 43
2018-11-10 2018 Turkey Tumble Gymnastics and Cheerleading Academy CT 3 5 Older 8.500 5T 7.350 3 9.125 2 8.050 6T 33.025 2T
2018-02-03 Level 4 & 5 States Gymnastics and Cheerleading Academy CT 4 4 11 A 8.650 28T 8.825 10 8.375 53 8.750 20T 34.600 22T
2018-01-26 2018 American Invitational Gymnastics and Cheerleading Academy CT 12B 4 Senior 8.250 15 9.400 2 8.900 10 9.300 4T 35.850 9
2018-01-19 Kinetic Kids Invitational Gymnastics and Cheerleading Academy CT 2 4 Sr A 9.000 6T 9.600 3 9.250 5T 9.000 6T 36.850 5
2017-11-30 Rhode Island Invitational Gymnastics and Cheerleading Academy CT SS1 4 Junior 8.100 7 8.550 3 8.750 1 8.775 1 34.175 2
2017-11-10 2017 Phs Turkey Tumble Gymnastics and Cheerleading Academy CT 1 4 Sr A 7.650 10 9.150 1 8.475 6 8.200 9T 33.475 6
2017-02-04 2017 Connecticut Level 4 & 5 State Meets Gymnastics and Cheerleading Academy CT 1 4 10 A 8.300 10 8.050 10 9.000 6 8.500 9 33.850 11
2017-01-27 24th Annual American Invitational Gymnastics and Cheerleading Academy CT 7A 4 Junior 7.800 23 9.000 13T 8.975 9 8.650 18 34.425 17
2016-12-02 Rhode Island Invitational Gymnastics and Cheerleading Academy CT SF3 4 Intermedia 8.300 9 8.750 3T 9.175 4 8.300 4 34.525 5
2016-11-18 2016 Muriel Grossfeld Invitational Gymnastics and Cheerleading Academy CT 4 4 Junior 8.375 5 8.700 6 9.300 1T 8.650 6T 35.025 3
2016-04-02 2016 Connecticut Level 6 States & Level 3 State Cup Gymnastics and Cheerleading Academy CT 6 3 N/A 9.000 41T 7.850 50 9.100 5 9.075 22 35.025 30
2016-02-13 Chelsea Piers Winter Challenge Gymnastics and Cheerleading Academy CT F5 3 JR B 8.500 10 9.650 2 9.050 9 9.100 3 36.300 4
2016-01-15 DGS Invitational Gymnastics and Cheerleading Academy CT A12 3 9 yrs. 8.800 13 8.950 4T 9.450 2 9.200 2T 36.400 5
2015-11-21 2015 Muriel Grossfeld Invitational Gymnastics and Cheerleading Academy CT 6 3 Sr A 9.000 6 8.700 5T 9.050 3 8.850 4 35.600 3
Get your scores on
a t-shirt, pin, or hoodie

www.lazysuits.com